sensor_id;sensor_type;location;lat;lon;timestamp;pressure;altitude;pressure_sealevel;temperature;humidity
47883;BME280;37739;50.350;7.578;2023-06-26T00:01:27;99541.66;;;25.30;42.63
47883;BME280;37739;50.350;7.578;2023-06-26T00:03:57;99541.28;;;25.09;43.28
47883;BME280;37739;50.350;7.578;2023-06-26T00:06:23;99538.84;;;25.03;43.24
47883;BME280;37739;50.350;7.578;2023-06-26T00:08:53;99531.91;;;25.00;43.88
47883;BME280;37739;50.350;7.578;2023-06-26T00:11:21;99534.25;;;24.77;44.34
47883;BME280;37739;50.350;7.578;2023-06-26T00:13:47;99533.03;;;24.56;44.61
47883;BME280;37739;50.350;7.578;2023-06-26T00:16:13;99534.25;;;24.41;44.92
47883;BME280;37739;50.350;7.578;2023-06-26T00:18:38;99531.16;;;24.61;44.79
47883;BME280;37739;50.350;7.578;2023-06-26T00:21:03;99527.13;;;24.82;44.41
47883;BME280;37739;50.350;7.578;2023-06-26T00:23:31;99530.28;;;24.96;43.56
47883;BME280;37739;50.350;7.578;2023-06-26T00:26:00;99536.22;;;25.03;43.65
47883;BME280;37739;50.350;7.578;2023-06-26T00:28:30;99537.16;;;25.00;43.77
47883;BME280;37739;50.350;7.578;2023-06-26T00:30:55;99548.06;;;24.85;44.26
47883;BME280;37739;50.350;7.578;2023-06-26T00:33:23;99544.63;;;24.83;44.63
47883;BME280;37739;50.350;7.578;2023-06-26T00:35:48;99545.50;;;24.82;44.32
47883;BME280;37739;50.350;7.578;2023-06-26T00:38:14;99538.66;;;24.76;44.69
47883;BME280;37739;50.350;7.578;2023-06-26T00:40:41;99539.66;;;24.71;44.86
47883;BME280;37739;50.350;7.578;2023-06-26T00:43:09;99538.16;;;24.62;45.31
47883;BME280;37739;50.350;7.578;2023-06-26T00:45:34;99539.19;;;24.55;44.97
47883;BME280;37739;50.350;7.578;2023-06-26T00:47:59;99538.41;;;24.49;45.63
47883;BME280;37739;50.350;7.578;2023-06-26T00:50:27;99538.69;;;24.39;45.60
47883;BME280;37739;50.350;7.578;2023-06-26T00:52:53;99540.53;;;24.34;46.10
47883;BME280;37739;50.350;7.578;2023-06-26T00:55:26;99543.28;;;24.29;45.72
47883;BME280;37739;50.350;7.578;2023-06-26T00:57:51;99539.88;;;24.24;46.55
47883;BME280;37739;50.350;7.578;2023-06-26T01:00:19;99543.34;;;24.24;46.40
47883;BME280;37739;50.350;7.578;2023-06-26T01:02:47;99535.69;;;24.17;46.47
47883;BME280;37739;50.350;7.578;2023-06-26T01:05:13;99541.78;;;24.17;46.00
47883;BME280;37739;50.350;7.578;2023-06-26T01:07:47;99536.50;;;24.19;46.10
47883;BME280;37739;50.350;7.578;2023-06-26T01:10:15;99530.47;;;24.15;46.36
47883;BME280;37739;50.350;7.578;2023-06-26T01:12:41;99528.72;;;24.16;45.84
47883;BME280;37739;50.350;7.578;2023-06-26T01:15:09;99522.66;;;24.14;46.14
47883;BME280;37739;50.350;7.578;2023-06-26T01:17:37;99529.72;;;24.10;46.22
47883;BME280;37739;50.350;7.578;2023-06-26T01:20:10;99522.78;;;24.07;46.73
47883;BME280;37739;50.350;7.578;2023-06-26T01:22:43;99521.03;;;24.08;46.24
47883;BME280;37739;50.350;7.578;2023-06-26T01:28:04;99522.13;;;23.98;46.39
47883;BME280;37739;50.350;7.578;2023-06-26T01:30:32;99514.41;;;23.91;46.61
47883;BME280;37739;50.350;7.578;2023-06-26T01:33:00;99512.78;;;23.86;47.14
47883;BME280;37739;50.350;7.578;2023-06-26T01:35:26;99518.28;;;23.74;47.49
47883;BME280;37739;50.350;7.578;2023-06-26T01:38:19;99511.44;;;23.66;48.50
47883;BME280;37739;50.350;7.578;2023-06-26T01:40:45;99507.97;;;23.64;47.57
47883;BME280;37739;50.350;7.578;2023-06-26T01:43:18;99507.16;;;23.62;48.39
47883;BME280;37739;50.350;7.578;2023-06-26T01:45:48;99509.81;;;23.59;47.78
47883;BME280;37739;50.350;7.578;2023-06-26T01:48:16;99507.22;;;23.59;47.74
47883;BME280;37739;50.350;7.578;2023-06-26T01:50:43;99510.66;;;23.61;47.78
47883;BME280;37739;50.350;7.578;2023-06-26T01:53:19;99516.00;;;23.57;48.49
47883;BME280;37739;50.350;7.578;2023-06-26T01:55:55;99512.69;;;23.48;48.39
47883;BME280;37739;50.350;7.578;2023-06-26T01:58:25;99510.13;;;23.45;47.94
47883;BME280;37739;50.350;7.578;2023-06-26T02:00:51;99515.44;;;23.42;48.38
47883;BME280;37739;50.350;7.578;2023-06-26T02:03:18;99501.53;;;23.39;47.99
47883;BME280;37739;50.350;7.578;2023-06-26T02:05:45;99510.28;;;23.36;48.22
47883;BME280;37739;50.350;7.578;2023-06-26T02:08:14;99513.97;;;23.27;49.04
47883;BME280;37739;50.350;7.578;2023-06-26T02:10:47;99511.41;;;23.23;48.85
47883;BME280;37739;50.350;7.578;2023-06-26T02:13:12;99513.44;;;23.10;49.36
47883;BME280;37739;50.350;7.578;2023-06-26T02:15:40;99519.63;;;23.04;49.79
47883;BME280;37739;50.350;7.578;2023-06-26T02:18:05;99511.91;;;22.97;49.58
47883;BME280;37739;50.350;7.578;2023-06-26T02:20:33;99519.81;;;22.92;50.23
47883;BME280;37739;50.350;7.578;2023-06-26T02:23:01;99517.28;;;22.89;50.47
47883;BME280;37739;50.350;7.578;2023-06-26T02:25:26;99515.63;;;22.83;50.20
47883;BME280;37739;50.350;7.578;2023-06-26T02:27:51;99519.94;;;22.84;50.51
47883;BME280;37739;50.350;7.578;2023-06-26T02:30:17;99513.88;;;22.84;50.64
47883;BME280;37739;50.350;7.578;2023-06-26T02:32:42;99513.06;;;22.79;50.53
47883;BME280;37739;50.350;7.578;2023-06-26T02:35:08;99513.13;;;22.77;50.62
47883;BME280;37739;50.350;7.578;2023-06-26T02:37:33;99510.53;;;22.74;50.67
47883;BME280;37739;50.350;7.578;2023-06-26T02:40:01;99511.41;;;22.74;50.63
47883;BME280;37739;50.350;7.578;2023-06-26T02:42:26;99508.03;;;22.68;50.32
47883;BME280;37739;50.350;7.578;2023-06-26T02:44:52;99507.28;;;22.61;50.78
47883;BME280;37739;50.350;7.578;2023-06-26T02:47:17;99504.75;;;22.57;50.85
47883;BME280;37739;50.350;7.578;2023-06-26T02:49:42;99505.72;;;22.51;50.54
47883;BME280;37739;50.350;7.578;2023-06-26T02:52:08;99498.81;;;22.45;50.67
47883;BME280;37739;50.350;7.578;2023-06-26T02:54:36;99501.44;;;22.47;51.17
47883;BME280;37739;50.350;7.578;2023-06-26T02:57:01;99495.41;;;22.40;51.21
47883;BME280;37739;50.350;7.578;2023-06-26T02:59:26;99503.44;;;22.31;51.62
47883;BME280;37739;50.350;7.578;2023-06-26T03:01:54;99494.78;;;22.26;51.41
47883;BME280;37739;50.350;7.578;2023-06-26T03:04:19;99491.31;;;22.24;51.63
47883;BME280;37739;50.350;7.578;2023-06-26T03:06:52;99501.84;;;22.19;52.17
47883;BME280;37739;50.350;7.578;2023-06-26T03:09:17;99497.44;;;22.21;52.08
47883;BME280;37739;50.350;7.578;2023-06-26T03:11:45;99499.28;;;22.14;52.19
47883;BME280;37739;50.350;7.578;2023-06-26T03:14:13;99495.84;;;22.11;52.17
47883;BME280;37739;50.350;7.578;2023-06-26T03:16:39;99500.22;;;22.09;52.41
47883;BME280;37739;50.350;7.578;2023-06-26T03:19:04;99495.03;;;22.07;52.12
47883;BME280;37739;50.350;7.578;2023-06-26T03:21:29;99490.81;;;21.99;52.74
47883;BME280;37739;50.350;7.578;2023-06-26T03:23:55;99491.72;;;21.96;52.61
47883;BME280;37739;50.350;7.578;2023-06-26T03:26:20;99489.16;;;21.91;53.11
47883;BME280;37739;50.350;7.578;2023-06-26T03:28:53;99491.84;;;21.88;52.85
47883;BME280;37739;50.350;7.578;2023-06-26T03:31:18;99486.66;;;21.84;53.20
47883;BME280;37739;50.350;7.578;2023-06-26T03:33:44;99492.84;;;21.78;53.29
47883;BME280;37739;50.350;7.578;2023-06-26T03:36:09;99492.84;;;21.76;53.43
47883;BME280;37739;50.350;7.578;2023-06-26T03:38:34;99498.94;;;21.77;53.65
47883;BME280;37739;50.350;7.578;2023-06-26T03:41:00;99504.22;;;21.74;53.68
47883;BME280;37739;50.350;7.578;2023-06-26T03:43:25;99498.16;;;21.70;53.59
47883;BME280;37739;50.350;7.578;2023-06-26T03:45:50;99494.72;;;21.67;53.82
47883;BME280;37739;50.350;7.578;2023-06-26T03:48:16;99490.44;;;21.61;53.84
47883;BME280;37739;50.350;7.578;2023-06-26T03:50:41;99489.59;;;21.59;53.90
47883;BME280;37739;50.350;7.578;2023-06-26T03:53:06;99493.94;;;21.62;53.47
47883;BME280;37739;50.350;7.578;2023-06-26T03:55:32;99501.88;;;21.52;53.72
47883;BME280;37739;50.350;7.578;2023-06-26T03:57:57;99496.56;;;21.59;53.64
47883;BME280;37739;50.350;7.578;2023-06-26T04:00:22;99495.69;;;21.60;53.43
47883;BME280;37739;50.350;7.578;2023-06-26T04:02:48;99515.66;;;21.62;53.50
47883;BME280;37739;50.350;7.578;2023-06-26T04:05:16;99529.66;;;21.58;53.37
47883;BME280;37739;50.350;7.578;2023-06-26T04:07:42;99524.38;;;21.61;53.34
47883;BME280;37739;50.350;7.578;2023-06-26T04:10:14;99512.22;;;21.60;52.85
47883;BME280;37739;50.350;7.578;2023-06-26T04:12:42;99508.84;;;21.52;53.62
47883;BME280;37739;50.350;7.578;2023-06-26T04:15:10;99521.94;;;21.47;53.51
47883;BME280;37739;50.350;7.578;2023-06-26T04:17:37;99503.63;;;21.52;53.15
47883;BME280;37739;50.350;7.578;2023-06-26T04:20:03;99497.56;;;21.50;53.09
47883;BME280;37739;50.350;7.578;2023-06-26T04:22:32;99508.00;;;21.50;53.47
47883;BME280;37739;50.350;7.578;2023-06-26T04:25:02;99525.63;;;21.25;55.11
47883;BME280;37739;50.350;7.578;2023-06-26T04:27:28;99518.63;;;21.31;54.07
47883;BME280;37739;50.350;7.578;2023-06-26T04:29:53;99517.69;;;21.35;53.82
47883;BME280;37739;50.350;7.578;2023-06-26T04:32:18;99532.50;;;21.33;53.84
47883;BME280;37739;50.350;7.578;2023-06-26T04:34:44;99552.75;;;21.11;55.31
47883;BME280;37739;50.350;7.578;2023-06-26T04:37:09;99545.94;;;20.96;56.22
47883;BME280;37739;50.350;7.578;2023-06-26T04:39:37;99524.09;;;21.08;55.86
47883;BME280;37739;50.350;7.578;2023-06-26T04:42:04;99523.22;;;21.08;55.64
47883;BME280;37739;50.350;7.578;2023-06-26T04:44:32;99543.34;;;20.95;56.98
47883;BME280;37739;50.350;7.578;2023-06-26T04:46:58;99548.88;;;20.52;58.70
47883;BME280;37739;50.350;7.578;2023-06-26T04:49:26;99540.88;;;20.76;57.14
47883;BME280;37739;50.350;7.578;2023-06-26T04:51:53;99543.19;;;21.09;56.18
47883;BME280;37739;50.350;7.578;2023-06-26T04:54:20;99547.47;;;21.19;55.78
47883;BME280;37739;50.350;7.578;2023-06-26T04:56:48;99558.63;;;21.30;55.17
47883;BME280;37739;50.350;7.578;2023-06-26T04:59:15;99557.69;;;21.36;55.42
47883;BME280;37739;50.350;7.578;2023-06-26T05:01:41;99547.19;;;21.44;54.78
47883;BME280;37739;50.350;7.578;2023-06-26T05:04:07;99540.19;;;21.49;54.89
47883;BME280;37739;50.350;7.578;2023-06-26T05:06:32;99546.22;;;21.54;54.34
47883;BME280;37739;50.350;7.578;2023-06-26T05:09:02;99547.94;;;21.56;54.76
47883;BME280;37739;50.350;7.578;2023-06-26T05:11:30;99552.28;;;21.58;54.69
47883;BME280;37739;50.350;7.578;2023-06-26T05:14:00;99545.25;;;21.61;54.56
47883;BME280;37739;50.350;7.578;2023-06-26T05:16:25;99554.72;;;21.73;54.05
47883;BME280;37739;50.350;7.578;2023-06-26T05:18:50;99543.34;;;21.77;54.66
47883;BME280;37739;50.350;7.578;2023-06-26T05:21:16;99542.44;;;21.76;54.22
47883;BME280;37739;50.350;7.578;2023-06-26T05:23:45;99540.66;;;21.80;54.56
47883;BME280;37739;50.350;7.578;2023-06-26T05:26:12;99538.84;;;21.87;54.01
47883;BME280;37739;50.350;7.578;2023-06-26T05:28:38;99542.22;;;21.95;53.94
47883;BME280;37739;50.350;7.578;2023-06-26T05:31:04;99543.81;;;22.05;54.16
47883;BME280;37739;50.350;7.578;2023-06-26T05:33:30;99548.22;;;22.02;54.65
47883;BME280;37739;50.350;7.578;2023-06-26T05:35:56;99544.59;;;22.13;54.74
47883;BME280;37739;50.350;7.578;2023-06-26T05:38:26;99553.28;;;22.14;54.70
47883;BME280;37739;50.350;7.578;2023-06-26T05:40:52;99557.66;;;22.13;55.35
47883;BME280;37739;50.350;7.578;2023-06-26T05:43:18;99553.34;;;22.09;54.78
47883;BME280;37739;50.350;7.578;2023-06-26T05:45:48;99564.66;;;22.11;54.97
47883;BME280;37739;50.350;7.578;2023-06-26T05:48:14;99562.81;;;22.18;54.53
47883;BME280;37739;50.350;7.578;2023-06-26T05:50:42;99564.59;;;22.14;54.23
47883;BME280;37739;50.350;7.578;2023-06-26T05:53:09;99569.63;;;22.30;53.72
47883;BME280;37739;50.350;7.578;2023-06-26T05:55:34;99572.22;;;22.33;53.27
47883;BME280;37739;50.350;7.578;2023-06-26T05:58:02;99570.31;;;22.44;52.85
47883;BME280;37739;50.350;7.578;2023-06-26T06:00:31;99573.63;;;22.54;52.43
47883;BME280;37739;50.350;7.578;2023-06-26T06:02:58;99577.00;;;22.62;51.68
47883;BME280;37739;50.350;7.578;2023-06-26T06:05:24;99581.19;;;22.71;51.59
47883;BME280;37739;50.350;7.578;2023-06-26T06:07:49;99589.00;;;22.72;52.18
47883;BME280;37739;50.350;7.578;2023-06-26T06:10:15;99579.31;;;22.81;52.09
47883;BME280;37739;50.350;7.578;2023-06-26T06:12:40;99585.41;;;22.81;52.37
47883;BME280;37739;50.350;7.578;2023-06-26T06:15:09;99584.50;;;22.82;52.48
47883;BME280;37739;50.350;7.578;2023-06-26T06:17:34;99590.44;;;22.92;52.67
47883;BME280;37739;50.350;7.578;2023-06-26T06:19:59;99586.03;;;22.96;52.65
47883;BME280;37739;50.350;7.578;2023-06-26T06:22:30;99596.25;;;23.11;52.71
47883;BME280;37739;50.350;7.578;2023-06-26T06:24:55;99595.28;;;23.17;52.45
47883;BME280;37739;50.350;7.578;2023-06-26T06:27:21;99591.94;;;23.08;53.14
47883;BME280;37739;50.350;7.578;2023-06-26T06:29:46;99597.22;;;23.05;53.68
47883;BME280;37739;50.350;7.578;2023-06-26T06:32:14;99591.72;;;23.21;53.46
47883;BME280;37739;50.350;7.578;2023-06-26T06:34:39;99590.13;;;23.13;53.27
47883;BME280;37739;50.350;7.578;2023-06-26T06:37:09;99593.81;;;22.99;53.99
47883;BME280;37739;50.350;7.578;2023-06-26T06:39:35;99598.13;;;23.04;54.13
47883;BME280;37739;50.350;7.578;2023-06-26T06:42:00;99595.28;;;23.17;53.56
47883;BME280;37739;50.350;7.578;2023-06-26T06:44:25;99598.72;;;23.20;53.38
47883;BME280;37739;50.350;7.578;2023-06-26T06:46:51;99610.88;;;23.23;53.26
47883;BME280;37739;50.350;7.578;2023-06-26T06:49:16;99606.31;;;23.32;53.15
47883;BME280;37739;50.350;7.578;2023-06-26T06:51:41;99606.94;;;23.47;52.98
47883;BME280;37739;50.350;7.578;2023-06-26T06:54:09;99606.66;;;23.62;52.53
47883;BME280;37739;50.350;7.578;2023-06-26T06:56:37;99611.56;;;23.81;52.41
47883;BME280;37739;50.350;7.578;2023-06-26T06:59:02;99606.75;;;24.03;52.15
47883;BME280;37739;50.350;7.578;2023-06-26T07:01:33;99614.28;;;24.18;52.03
47883;BME280;37739;50.350;7.578;2023-06-26T07:04:01;99626.38;;;24.24;51.99
47883;BME280;37739;50.350;7.578;2023-06-26T07:06:31;99625.28;;;24.34;52.10
47883;BME280;37739;50.350;7.578;2023-06-26T07:08:56;99627.50;;;24.14;52.22
47883;BME280;37739;50.350;7.578;2023-06-26T07:11:21;99625.25;;;23.95;52.23
47883;BME280;37739;50.350;7.578;2023-06-26T07:13:49;99633.56;;;23.69;52.58
47883;BME280;37739;50.350;7.578;2023-06-26T07:16:15;99634.69;;;23.57;52.82
47883;BME280;37739;50.350;7.578;2023-06-26T07:18:42;99639.88;;;23.60;52.72
47883;BME280;37739;50.350;7.578;2023-06-26T07:21:10;99641.78;;;23.52;52.90
47883;BME280;37739;50.350;7.578;2023-06-26T07:23:36;99642.25;;;23.71;52.10
47883;BME280;37739;50.350;7.578;2023-06-26T07:26:03;99644.75;;;23.80;51.68
47883;BME280;37739;50.350;7.578;2023-06-26T07:28:29;99646.50;;;23.80;52.08
47883;BME280;37739;50.350;7.578;2023-06-26T07:30:56;99658.28;;;24.02;51.47
47883;BME280;37739;50.350;7.578;2023-06-26T07:33:22;99654.25;;;24.28;51.11
47883;BME280;37739;50.350;7.578;2023-06-26T07:35:52;99656.75;;;24.33;50.62
47883;BME280;37739;50.350;7.578;2023-06-26T07:38:22;99659.97;;;24.47;49.89
47883;BME280;37739;50.350;7.578;2023-06-26T07:40:47;99648.13;;;24.69;49.65
47883;BME280;37739;50.350;7.578;2023-06-26T07:43:15;99649.56;;;24.83;50.07
47883;BME280;37739;50.350;7.578;2023-06-26T07:45:40;99656.59;;;24.81;49.39
47883;BME280;37739;50.350;7.578;2023-06-26T07:48:06;99648.81;;;24.76;49.70
47883;BME280;37739;50.350;7.578;2023-06-26T07:50:31;99647.13;;;24.75;49.44
47883;BME280;37739;50.350;7.578;2023-06-26T07:52:59;99659.28;;;24.78;49.32
47883;BME280;37739;50.350;7.578;2023-06-26T07:55:25;99659.78;;;24.94;49.04
47883;BME280;37739;50.350;7.578;2023-06-26T07:57:51;99667.25;;;25.11;48.67
47883;BME280;37739;50.350;7.578;2023-06-26T08:00:20;99652.34;;;25.11;48.36
47883;BME280;37739;50.350;7.578;2023-06-26T08:02:48;99649.13;;;25.36;48.51
47883;BME280;37739;50.350;7.578;2023-06-26T08:05:15;99649.31;;;25.62;48.12
47883;BME280;37739;50.350;7.578;2023-06-26T08:07:43;99654.19;;;25.76;47.32
47883;BME280;37739;50.350;7.578;2023-06-26T08:10:09;99647.09;;;25.47;48.60
47883;BME280;37739;50.350;7.578;2023-06-26T08:12:34;99652.69;;;25.35;48.27
47883;BME280;37739;50.350;7.578;2023-06-26T08:15:11;99661.59;;;24.90;49.30
47883;BME280;37739;50.350;7.578;2023-06-26T08:17:37;99664.28;;;24.48;50.31
47883;BME280;37739;50.350;7.578;2023-06-26T08:20:05;99662.56;;;24.48;50.77
47883;BME280;37739;50.350;7.578;2023-06-26T08:22:33;99653.81;;;24.48;50.74
47883;BME280;37739;50.350;7.578;2023-06-26T08:25:02;99660.41;;;24.67;50.51
47883;BME280;37739;50.350;7.578;2023-06-26T08:27:28;99655.34;;;24.96;49.85
47883;BME280;37739;50.350;7.578;2023-06-26T08:29:53;99655.78;;;25.15;49.12
47883;BME280;37739;50.350;7.578;2023-06-26T08:32:18;99656.50;;;25.21;49.11
47883;BME280;37739;50.350;7.578;2023-06-26T08:34:44;99659.84;;;25.28;49.01
47883;BME280;37739;50.350;7.578;2023-06-26T08:37:11;99656.38;;;25.60;48.72
47883;BME280;37739;50.350;7.578;2023-06-26T08:39:37;99658.03;;;25.63;48.78
47883;BME280;37739;50.350;7.578;2023-06-26T08:42:04;99659.59;;;25.70;48.56
47883;BME280;37739;50.350;7.578;2023-06-26T08:44:29;99668.88;;;25.83;47.96
47883;BME280;37739;50.350;7.578;2023-06-26T08:46:55;99662.78;;;25.83;47.64
47883;BME280;37739;50.350;7.578;2023-06-26T08:49:25;99671.84;;;26.04;47.39
47883;BME280;37739;50.350;7.578;2023-06-26T08:52:02;99669.28;;;26.01;47.10
47883;BME280;37739;50.350;7.578;2023-06-26T08:54:33;99670.19;;;26.00;47.28
47883;BME280;37739;50.350;7.578;2023-06-26T08:57:00;99662.97;;;26.08;46.79
47883;BME280;37739;50.350;7.578;2023-06-26T08:59:25;99665.66;;;26.05;46.98
47883;BME280;37739;50.350;7.578;2023-06-26T09:01:53;99663.09;;;26.03;47.22
47883;BME280;37739;50.350;7.578;2023-06-26T09:04:21;99672.38;;;26.15;46.65
47883;BME280;37739;50.350;7.578;2023-06-26T09:06:51;99672.06;;;26.26;46.07
47883;BME280;37739;50.350;7.578;2023-06-26T09:09:16;99674.25;;;26.41;46.24
47883;BME280;37739;50.350;7.578;2023-06-26T09:11:42;99682.38;;;26.34;46.38
47883;BME280;37739;50.350;7.578;2023-06-26T09:14:07;99680.97;;;26.50;46.16
47883;BME280;37739;50.350;7.578;2023-06-26T09:16:40;99680.69;;;26.31;46.27
47883;BME280;37739;50.350;7.578;2023-06-26T09:19:13;99684.97;;;26.35;46.14
47883;BME280;37739;50.350;7.578;2023-06-26T09:21:44;99683.69;;;26.49;45.71
47883;BME280;37739;50.350;7.578;2023-06-26T09:24:10;99691.84;;;26.39;45.54
47883;BME280;37739;50.350;7.578;2023-06-26T09:26:39;99681.63;;;26.29;45.84
47883;BME280;37739;50.350;7.578;2023-06-26T09:29:06;99695.09;;;26.48;45.38
47883;BME280;37739;50.350;7.578;2023-06-26T09:31:41;99690.09;;;26.38;45.13
47883;BME280;37739;50.350;7.578;2023-06-26T09:34:08;99692.84;;;26.65;45.58
47883;BME280;37739;50.350;7.578;2023-06-26T09:36:33;99691.47;;;26.52;45.24
47883;BME280;37739;50.350;7.578;2023-06-26T09:39:05;99691.50;;;26.50;45.81
47883;BME280;37739;50.350;7.578;2023-06-26T09:41:34;99690.75;;;26.47;46.15
47883;BME280;37739;50.350;7.578;2023-06-26T09:44:03;99689.78;;;26.79;45.75
47883;BME280;37739;50.350;7.578;2023-06-26T09:46:30;99693.63;;;26.97;45.87
47883;BME280;37739;50.350;7.578;2023-06-26T09:49:08;99677.63;;;27.03;45.16
47883;BME280;37739;50.350;7.578;2023-06-26T09:51:39;99672.75;;;27.17;45.08
47883;BME280;37739;50.350;7.578;2023-06-26T09:54:06;99684.75;;;27.28;44.59
47883;BME280;37739;50.350;7.578;2023-06-26T09:56:32;99680.53;;;26.66;46.15
47883;BME280;37739;50.350;7.578;2023-06-26T09:59:03;99674.50;;;26.90;46.02
47883;BME280;37739;50.350;7.578;2023-06-26T10:01:30;99688.97;;;27.05;45.20
47883;BME280;37739;50.350;7.578;2023-06-26T10:03:56;99682.78;;;27.06;44.84
47883;BME280;37739;50.350;7.578;2023-06-26T10:06:35;99686.56;;;26.97;45.22
47883;BME280;37739;50.350;7.578;2023-06-26T10:09:02;99685.09;;;27.15;44.82
47883;BME280;37739;50.350;7.578;2023-06-26T10:11:40;99683.22;;;27.19;44.18
47883;BME280;37739;50.350;7.578;2023-06-26T10:14:08;99686.72;;;27.71;44.05
47883;BME280;37739;50.350;7.578;2023-06-26T10:16:36;99682.66;;;27.88;43.18
47883;BME280;37739;50.350;7.578;2023-06-26T10:19:06;99691.81;;;28.03;43.32
47883;BME280;37739;50.350;7.578;2023-06-26T10:21:34;99693.47;;;28.05;42.87
47883;BME280;37739;50.350;7.578;2023-06-26T10:24:00;99689.28;;;27.74;42.56
47883;BME280;37739;50.350;7.578;2023-06-26T10:26:28;99689.41;;;28.20;42.36
47883;BME280;37739;50.350;7.578;2023-06-26T10:28:55;99698.53;;;28.58;42.09
47883;BME280;37739;50.350;7.578;2023-06-26T10:31:26;99704.94;;;28.28;41.62
47883;BME280;37739;50.350;7.578;2023-06-26T10:33:55;99702.56;;;28.67;41.70
47883;BME280;37739;50.350;7.578;2023-06-26T10:36:28;99703.47;;;28.90;40.54
47883;BME280;37739;50.350;7.578;2023-06-26T10:38:58;99705.41;;;28.85;40.14
47883;BME280;37739;50.350;7.578;2023-06-26T10:41:26;99706.16;;;28.88;40.54
47883;BME280;37739;50.350;7.578;2023-06-26T10:44:06;99704.13;;;28.49;40.55
47883;BME280;37739;50.350;7.578;2023-06-26T10:46:55;99711.25;;;27.73;42.20
47883;BME280;37739;50.350;7.578;2023-06-26T10:49:25;99710.53;;;27.70;42.51
47883;BME280;37739;50.350;7.578;2023-06-26T10:51:51;99726.47;;;27.92;41.94
47883;BME280;37739;50.350;7.578;2023-06-26T10:54:18;99728.56;;;28.07;41.70
47883;BME280;37739;50.350;7.578;2023-06-26T10:59:20;99720.81;;;28.50;40.59
47883;BME280;37739;50.350;7.578;2023-06-26T11:01:47;99727.50;;;28.60;39.58
47883;BME280;37739;50.350;7.578;2023-06-26T11:04:22;99731.25;;;28.54;39.28
47883;BME280;37739;50.350;7.578;2023-06-26T11:07:23;99728.03;;;28.21;39.10
47883;BME280;37739;50.350;7.578;2023-06-26T11:10:07;99736.13;;;28.40;39.12
47883;BME280;37739;50.350;7.578;2023-06-26T11:12:38;99738.63;;;28.45;38.34
47883;BME280;37739;50.350;7.578;2023-06-26T11:15:11;99740.56;;;28.63;38.64
47883;BME280;37739;50.350;7.578;2023-06-26T11:17:40;99741.25;;;28.45;38.20
47883;BME280;37739;50.350;7.578;2023-06-26T11:20:15;99752.53;;;28.25;38.23
47883;BME280;37739;50.350;7.578;2023-06-26T11:22:52;99743.50;;;28.32;38.45
47883;BME280;37739;50.350;7.578;2023-06-26T11:25:20;99734.41;;;28.86;38.27
47883;BME280;37739;50.350;7.578;2023-06-26T11:27:45;99744.06;;;29.31;37.73
47883;BME280;37739;50.350;7.578;2023-06-26T11:30:21;99743.81;;;29.58;36.50
47883;BME280;37739;50.350;7.578;2023-06-26T11:32:49;99739.53;;;29.78;36.72
47883;BME280;37739;50.350;7.578;2023-06-26T11:35:25;99745.66;;;29.56;36.24
47883;BME280;37739;50.350;7.578;2023-06-26T11:37:58;99742.50;;;29.48;35.96
47883;BME280;37739;50.350;7.578;2023-06-26T11:40:26;99733.19;;;29.39;36.56
47883;BME280;37739;50.350;7.578;2023-06-26T11:43:00;99740.84;;;29.66;35.95
47883;BME280;37739;50.350;7.578;2023-06-26T11:45:31;99734.97;;;29.59;35.19
47883;BME280;37739;50.350;7.578;2023-06-26T11:47:58;99734.78;;;29.43;34.66
47883;BME280;37739;50.350;7.578;2023-06-26T11:50:24;99740.38;;;29.56;34.07
47883;BME280;37739;50.350;7.578;2023-06-26T11:52:57;99736.78;;;30.00;34.52
47883;BME280;37739;50.350;7.578;2023-06-26T11:55:25;99739.72;;;29.71;34.25
47883;BME280;37739;50.350;7.578;2023-06-26T11:57:53;99738.47;;;29.82;33.65
47883;BME280;37739;50.350;7.578;2023-06-26T12:00:19;99747.56;;;29.95;33.88
47883;BME280;37739;50.350;7.578;2023-06-26T12:02:45;99749.59;;;30.09;33.84
47883;BME280;37739;50.350;7.578;2023-06-26T12:05:12;99745.09;;;30.11;33.70
47883;BME280;37739;50.350;7.578;2023-06-26T12:07:41;99756.81;;;30.05;32.28
47883;BME280;37739;50.350;7.578;2023-06-26T12:10:10;99753.59;;;29.99;32.88
47883;BME280;37739;50.350;7.578;2023-06-26T12:12:39;99753.31;;;30.05;32.51
47883;BME280;37739;50.350;7.578;2023-06-26T12:15:06;99741.50;;;29.30;32.57
47883;BME280;37739;50.350;7.578;2023-06-26T12:17:37;99744.56;;;29.19;33.49
47883;BME280;37739;50.350;7.578;2023-06-26T12:20:16;99746.28;;;29.20;32.88
47883;BME280;37739;50.350;7.578;2023-06-26T12:22:48;99750.16;;;29.54;32.81
47883;BME280;37739;50.350;7.578;2023-06-26T12:25:14;99750.22;;;29.95;32.20
47883;BME280;37739;50.350;7.578;2023-06-26T12:27:39;99757.91;;;29.59;32.16
47883;BME280;37739;50.350;7.578;2023-06-26T12:30:05;99749.22;;;29.34;32.43
47883;BME280;37739;50.350;7.578;2023-06-26T12:32:34;99755.84;;;29.45;32.40
47883;BME280;37739;50.350;7.578;2023-06-26T12:35:02;99753.75;;;30.14;31.97
47883;BME280;37739;50.350;7.578;2023-06-26T12:37:28;99756.41;;;30.73;32.25
47883;BME280;37739;50.350;7.578;2023-06-26T12:39:57;99757.31;;;30.34;30.98
47883;BME280;37739;50.350;7.578;2023-06-26T12:42:32;99766.38;;;30.49;30.74
47883;BME280;37739;50.350;7.578;2023-06-26T12:44:57;99774.31;;;30.68;30.63
47883;BME280;37739;50.350;7.578;2023-06-26T12:47:27;99761.25;;;30.05;30.32
47883;BME280;37739;50.350;7.578;2023-06-26T12:49:58;99763.16;;;30.01;31.19
47883;BME280;37739;50.350;7.578;2023-06-26T12:52:30;99755.28;;;30.20;30.68
47883;BME280;37739;50.350;7.578;2023-06-26T12:54:57;99748.97;;;30.23;31.62
47883;BME280;37739;50.350;7.578;2023-06-26T12:57:22;99751.66;;;30.02;31.15
47883;BME280;37739;50.350;7.578;2023-06-26T12:59:48;99767.28;;;29.88;29.96
47883;BME280;37739;50.350;7.578;2023-06-26T13:02:16;99754.88;;;30.29;29.85
47883;BME280;37739;50.350;7.578;2023-06-26T13:04:41;99760.34;;;30.83;29.51
47883;BME280;37739;50.350;7.578;2023-06-26T13:07:10;99768.56;;;30.77;29.03
47883;BME280;37739;50.350;7.578;2023-06-26T13:09:37;99767.09;;;30.90;29.48